Allin, Illinois
Current Conditions -  °F | °C
As of 8:56 AM on Saturday 01 Nov 2014 (Local Time) from KBMI Reporting Station
Clear Clear  
Wind Chill: 22°   Ceiling: Unl
Heat Index: 32°   Visibility: 10mi
Dew Point: 23°   Wind: 15mph
Humidity: 69%   Direction: 350°N
Pressure: 30.44"   Gusts: NA
Location:  40.4427°N, 89.2086°W
Report Text: KBMI 011356Z 35013KT 10SM CLR 00/M05 A3044 RMK AO2 T00001050 SLP322
Loading
Personal Weather Stations






























Interactive Weather Map New forecast layout! Learn more

10-Day Weather Forecast

Advertisements
Track Severe Weather on mobile